sensor_id;sensor_type;location;lat;lon;timestamp;temperature;humidity
24518;DHT22;12678;51.336;12.406;2024-02-15T00:01:22;10.20;99.90
24518;DHT22;12678;51.336;12.406;2024-02-15T00:03:48;10.20;99.90
24518;DHT22;12678;51.336;12.406;2024-02-15T00:06:13;10.20;99.90
24518;DHT22;12678;51.336;12.406;2024-02-15T00:08:39;10.20;99.90
24518;DHT22;12678;51.336;12.406;2024-02-15T00:11:04;10.20;99.90
24518;DHT22;12678;51.336;12.406;2024-02-15T00:13:30;10.20;99.90
24518;DHT22;12678;51.336;12.406;2024-02-15T00:15:58;10.30;99.90
24518;DHT22;12678;51.336;12.406;2024-02-15T00:18:24;10.30;99.90
24518;DHT22;12678;51.336;12.406;2024-02-15T00:20:50;10.30;99.90
24518;DHT22;12678;51.336;12.406;2024-02-15T00:23:15;10.30;99.90
24518;DHT22;12678;51.336;12.406;2024-02-15T00:25:41;10.30;99.90
24518;DHT22;12678;51.336;12.406;2024-02-15T00:28:10;10.30;99.90
24518;DHT22;12678;51.336;12.406;2024-02-15T00:30:36;10.30;99.90
24518;DHT22;12678;51.336;12.406;2024-02-15T00:33:02;10.40;99.90
24518;DHT22;12678;51.336;12.406;2024-02-15T00:35:28;10.40;99.90
24518;DHT22;12678;51.336;12.406;2024-02-15T00:37:53;10.40;99.90
24518;DHT22;12678;51.336;12.406;2024-02-15T00:40:19;10.40;99.90
24518;DHT22;12678;51.336;12.406;2024-02-15T00:42:46;10.40;99.90
24518;DHT22;12678;51.336;12.406;2024-02-15T00:45:12;10.40;99.90
24518;DHT22;12678;51.336;12.406;2024-02-15T00:47:38;10.40;99.90
24518;DHT22;12678;51.336;12.406;2024-02-15T00:50:04;10.40;99.90
24518;DHT22;12678;51.336;12.406;2024-02-15T00:52:29;10.40;99.90
24518;DHT22;12678;51.336;12.406;2024-02-15T00:54:57;10.40;99.90
24518;DHT22;12678;51.336;12.406;2024-02-15T00:57:22;10.30;99.90
24518;DHT22;12678;51.336;12.406;2024-02-15T00:59:48;10.40;99.90
24518;DHT22;12678;51.336;12.406;2024-02-15T01:02:14;10.30;99.90
24518;DHT22;12678;51.336;12.406;2024-02-15T01:04:39;10.40;99.90
24518;DHT22;12678;51.336;12.406;2024-02-15T01:07:05;10.40;99.90
24518;DHT22;12678;51.336;12.406;2024-02-15T01:09:30;10.40;99.90
24518;DHT22;12678;51.336;12.406;2024-02-15T01:11:56;10.40;99.90
24518;DHT22;12678;51.336;12.406;2024-02-15T01:14:22;10.40;99.90
24518;DHT22;12678;51.336;12.406;2024-02-15T01:16:48;10.40;99.90
24518;DHT22;12678;51.336;12.406;2024-02-15T01:19:14;10.40;99.90
24518;DHT22;12678;51.336;12.406;2024-02-15T01:21:40;10.40;99.90
24518;DHT22;12678;51.336;12.406;2024-02-15T01:24:06;10.40;99.90
24518;DHT22;12678;51.336;12.406;2024-02-15T01:26:32;10.40;99.90
24518;DHT22;12678;51.336;12.406;2024-02-15T01:28:58;10.50;99.90
24518;DHT22;12678;51.336;12.406;2024-02-15T01:31:23;10.50;99.90
24518;DHT22;12678;51.336;12.406;2024-02-15T01:33:49;10.50;99.90
24518;DHT22;12678;51.336;12.406;2024-02-15T01:36:15;10.50;99.90
24518;DHT22;12678;51.336;12.406;2024-02-15T01:38:41;10.50;99.90
24518;DHT22;12678;51.336;12.406;2024-02-15T01:41:07;10.50;99.90
24518;DHT22;12678;51.336;12.406;2024-02-15T01:43:33;10.50;99.90
24518;DHT22;12678;51.336;12.406;2024-02-15T01:45:59;10.40;99.90
24518;DHT22;12678;51.336;12.406;2024-02-15T01:48:29;10.50;99.90
24518;DHT22;12678;51.336;12.406;2024-02-15T01:50:56;10.50;99.90
24518;DHT22;12678;51.336;12.406;2024-02-15T01:53:23;10.50;99.90
24518;DHT22;12678;51.336;12.406;2024-02-15T01:55:52;10.50;99.90
24518;DHT22;12678;51.336;12.406;2024-02-15T01:58:18;10.50;99.90
24518;DHT22;12678;51.336;12.406;2024-02-15T02:00:45;10.60;99.90
24518;DHT22;12678;51.336;12.406;2024-02-15T02:03:13;10.50;99.90
24518;DHT22;12678;51.336;12.406;2024-02-15T02:05:41;10.40;99.90
24518;DHT22;12678;51.336;12.406;2024-02-15T02:08:07;10.50;99.90
24518;DHT22;12678;51.336;12.406;2024-02-15T02:10:36;10.50;99.90
24518;DHT22;12678;51.336;12.406;2024-02-15T02:13:02;10.50;99.90
24518;DHT22;12678;51.336;12.406;2024-02-15T02:15:28;10.50;99.90
24518;DHT22;12678;51.336;12.406;2024-02-15T02:18:04;10.60;99.90
24518;DHT22;12678;51.336;12.406;2024-02-15T02:20:34;10.60;99.90
24518;DHT22;12678;51.336;12.406;2024-02-15T02:23:07;10.60;99.90
24518;DHT22;12678;51.336;12.406;2024-02-15T02:25:32;10.60;99.90
24518;DHT22;12678;51.336;12.406;2024-02-15T02:27:59;10.50;99.90
24518;DHT22;12678;51.336;12.406;2024-02-15T02:30:25;10.50;99.90
24518;DHT22;12678;51.336;12.406;2024-02-15T02:32:55;10.50;99.90
24518;DHT22;12678;51.336;12.406;2024-02-15T02:35:21;10.60;99.90
24518;DHT22;12678;51.336;12.406;2024-02-15T02:37:47;10.50;99.90
24518;DHT22;12678;51.336;12.406;2024-02-15T02:40:12;10.50;99.90
24518;DHT22;12678;51.336;12.406;2024-02-15T02:42:55;10.50;99.90
24518;DHT22;12678;51.336;12.406;2024-02-15T02:45:27;10.60;99.90
24518;DHT22;12678;51.336;12.406;2024-02-15T02:47:53;10.60;99.90
24518;DHT22;12678;51.336;12.406;2024-02-15T02:50:20;10.60;99.90
24518;DHT22;12678;51.336;12.406;2024-02-15T02:52:46;10.50;99.90
24518;DHT22;12678;51.336;12.406;2024-02-15T02:55:13;10.60;99.90
24518;DHT22;12678;51.336;12.406;2024-02-15T02:57:39;10.60;99.90
24518;DHT22;12678;51.336;12.406;2024-02-15T03:00:10;10.60;99.90
24518;DHT22;12678;51.336;12.406;2024-02-15T03:02:44;10.70;99.90
24518;DHT22;12678;51.336;12.406;2024-02-15T03:05:10;10.60;99.90
24518;DHT22;12678;51.336;12.406;2024-02-15T03:07:37;10.70;99.90
24518;DHT22;12678;51.336;12.406;2024-02-15T03:10:04;10.60;99.90
24518;DHT22;12678;51.336;12.406;2024-02-15T03:12:30;10.60;99.90
24518;DHT22;12678;51.336;12.406;2024-02-15T03:14:56;10.70;99.90
24518;DHT22;12678;51.336;12.406;2024-02-15T03:17:25;10.70;99.90
24518;DHT22;12678;51.336;12.406;2024-02-15T03:19:51;10.70;99.90
24518;DHT22;12678;51.336;12.406;2024-02-15T03:22:17;10.70;99.90
24518;DHT22;12678;51.336;12.406;2024-02-15T03:24:42;10.60;99.90
24518;DHT22;12678;51.336;12.406;2024-02-15T03:27:08;10.70;99.90
24518;DHT22;12678;51.336;12.406;2024-02-15T03:29:35;10.70;99.90
24518;DHT22;12678;51.336;12.406;2024-02-15T03:32:02;10.70;99.90
24518;DHT22;12678;51.336;12.406;2024-02-15T03:34:31;10.60;99.90
24518;DHT22;12678;51.336;12.406;2024-02-15T03:36:57;10.60;99.90
24518;DHT22;12678;51.336;12.406;2024-02-15T03:39:24;10.70;99.90
24518;DHT22;12678;51.336;12.406;2024-02-15T03:41:50;10.60;99.90
24518;DHT22;12678;51.336;12.406;2024-02-15T03:44:17;10.70;99.90
24518;DHT22;12678;51.336;12.406;2024-02-15T03:46:45;10.60;99.90
24518;DHT22;12678;51.336;12.406;2024-02-15T03:49:17;10.70;99.90
24518;DHT22;12678;51.336;12.406;2024-02-15T03:51:43;10.60;99.90
24518;DHT22;12678;51.336;12.406;2024-02-15T03:54:10;10.60;99.90
24518;DHT22;12678;51.336;12.406;2024-02-15T03:56:36;10.60;99.90
24518;DHT22;12678;51.336;12.406;2024-02-15T03:59:02;10.60;99.90
24518;DHT22;12678;51.336;12.406;2024-02-15T04:01:30;10.70;99.90
24518;DHT22;12678;51.336;12.406;2024-02-15T04:03:59;10.70;99.90
24518;DHT22;12678;51.336;12.406;2024-02-15T04:06:25;10.70;99.90
24518;DHT22;12678;51.336;12.406;2024-02-15T04:08:53;10.70;99.90
24518;DHT22;12678;51.336;12.406;2024-02-15T04:11:18;10.70;99.90
24518;DHT22;12678;51.336;12.406;2024-02-15T04:13:45;10.70;99.90
24518;DHT22;12678;51.336;12.406;2024-02-15T04:16:11;10.70;99.90
24518;DHT22;12678;51.336;12.406;2024-02-15T04:18:38;10.70;99.90
24518;DHT22;12678;51.336;12.406;2024-02-15T04:21:04;10.70;99.90
24518;DHT22;12678;51.336;12.406;2024-02-15T04:23:32;10.70;99.90
24518;DHT22;12678;51.336;12.406;2024-02-15T04:25:58;10.70;99.90
24518;DHT22;12678;51.336;12.406;2024-02-15T04:28:25;10.70;99.90
24518;DHT22;12678;51.336;12.406;2024-02-15T04:30:50;10.70;99.90
24518;DHT22;12678;51.336;12.406;2024-02-15T04:33:16;10.80;99.90
24518;DHT22;12678;51.336;12.406;2024-02-15T04:35:42;10.70;99.90
24518;DHT22;12678;51.336;12.406;2024-02-15T04:38:08;10.70;99.90
24518;DHT22;12678;51.336;12.406;2024-02-15T04:40:34;10.70;99.90
24518;DHT22;12678;51.336;12.406;2024-02-15T04:43:00;10.70;99.90
24518;DHT22;12678;51.336;12.406;2024-02-15T04:45:29;10.80;99.90
24518;DHT22;12678;51.336;12.406;2024-02-15T04:47:56;10.80;99.90
24518;DHT22;12678;51.336;12.406;2024-02-15T04:50:22;10.80;99.90
24518;DHT22;12678;51.336;12.406;2024-02-15T04:52:48;10.80;99.90
24518;DHT22;12678;51.336;12.406;2024-02-15T04:55:15;10.80;99.90
24518;DHT22;12678;51.336;12.406;2024-02-15T04:57:42;10.80;99.90
24518;DHT22;12678;51.336;12.406;2024-02-15T05:00:08;10.80;99.90
24518;DHT22;12678;51.336;12.406;2024-02-15T05:02:37;10.80;99.90
24518;DHT22;12678;51.336;12.406;2024-02-15T05:05:07;10.90;99.90
24518;DHT22;12678;51.336;12.406;2024-02-15T05:07:34;10.80;99.90
24518;DHT22;12678;51.336;12.406;2024-02-15T05:10:00;10.80;99.90
24518;DHT22;12678;51.336;12.406;2024-02-15T05:12:31;10.90;99.90
24518;DHT22;12678;51.336;12.406;2024-02-15T05:14:57;10.90;99.90
24518;DHT22;12678;51.336;12.406;2024-02-15T05:17:22;10.90;99.90
24518;DHT22;12678;51.336;12.406;2024-02-15T05:19:49;10.90;99.90
24518;DHT22;12678;51.336;12.406;2024-02-15T05:22:14;10.90;99.90
24518;DHT22;12678;51.336;12.406;2024-02-15T05:24:40;11.00;99.90
24518;DHT22;12678;51.336;12.406;2024-02-15T05:27:06;10.90;99.90
24518;DHT22;12678;51.336;12.406;2024-02-15T05:29:31;10.90;99.90
24518;DHT22;12678;51.336;12.406;2024-02-15T05:32:01;10.90;99.90
24518;DHT22;12678;51.336;12.406;2024-02-15T05:34:27;10.90;99.90
24518;DHT22;12678;51.336;12.406;2024-02-15T05:36:55;10.90;99.90
24518;DHT22;12678;51.336;12.406;2024-02-15T05:39:20;10.90;99.90
24518;DHT22;12678;51.336;12.406;2024-02-15T05:41:47;10.90;99.90
24518;DHT22;12678;51.336;12.406;2024-02-15T05:44:14;10.90;99.90
24518;DHT22;12678;51.336;12.406;2024-02-15T05:46:44;10.80;99.90
24518;DHT22;12678;51.336;12.406;2024-02-15T05:49:10;10.80;99.90
24518;DHT22;12678;51.336;12.406;2024-02-15T05:51:41;10.80;99.90
24518;DHT22;12678;51.336;12.406;2024-02-15T05:54:06;10.80;99.90
24518;DHT22;12678;51.336;12.406;2024-02-15T05:56:32;10.80;99.90
24518;DHT22;12678;51.336;12.406;2024-02-15T05:58:57;10.80;99.90
24518;DHT22;12678;51.336;12.406;2024-02-15T06:01:23;10.70;99.90
24518;DHT22;12678;51.336;12.406;2024-02-15T06:03:49;10.70;99.90
24518;DHT22;12678;51.336;12.406;2024-02-15T06:06:16;10.70;99.90
24518;DHT22;12678;51.336;12.406;2024-02-15T06:08:41;10.70;99.90
24518;DHT22;12678;51.336;12.406;2024-02-15T06:11:07;10.70;99.90
24518;DHT22;12678;51.336;12.406;2024-02-15T06:13:34;10.70;99.90
24518;DHT22;12678;51.336;12.406;2024-02-15T06:16:03;10.70;99.90
24518;DHT22;12678;51.336;12.406;2024-02-15T06:18:34;10.70;99.90
24518;DHT22;12678;51.336;12.406;2024-02-15T06:21:00;10.70;99.90
24518;DHT22;12678;51.336;12.406;2024-02-15T06:23:26;10.60;99.90
24518;DHT22;12678;51.336;12.406;2024-02-15T06:25:56;10.60;99.90
24518;DHT22;12678;51.336;12.406;2024-02-15T06:28:23;10.60;99.90
24518;DHT22;12678;51.336;12.406;2024-02-15T06:31:08;10.60;99.90
24518;DHT22;12678;51.336;12.406;2024-02-15T06:33:52;10.60;99.90
24518;DHT22;12678;51.336;12.406;2024-02-15T06:36:56;10.60;99.90
24518;DHT22;12678;51.336;12.406;2024-02-15T06:39:41;10.50;99.90
24518;DHT22;12678;51.336;12.406;2024-02-15T06:42:12;10.50;99.90
24518;DHT22;12678;51.336;12.406;2024-02-15T06:44:44;10.50;99.90
24518;DHT22;12678;51.336;12.406;2024-02-15T06:47:10;10.40;99.90
24518;DHT22;12678;51.336;12.406;2024-02-15T06:49:39;10.40;99.90
24518;DHT22;12678;51.336;12.406;2024-02-15T06:52:06;10.40;99.90
24518;DHT22;12678;51.336;12.406;2024-02-15T06:54:33;10.40;99.90
24518;DHT22;12678;51.336;12.406;2024-02-15T06:57:01;10.40;99.90
24518;DHT22;12678;51.336;12.406;2024-02-15T06:59:27;10.50;99.90
24518;DHT22;12678;51.336;12.406;2024-02-15T07:01:53;10.50;99.90
24518;DHT22;12678;51.336;12.406;2024-02-15T07:04:19;10.50;99.90
24518;DHT22;12678;51.336;12.406;2024-02-15T07:06:46;10.60;99.90
24518;DHT22;12678;51.336;12.406;2024-02-15T07:09:13;10.60;99.90
24518;DHT22;12678;51.336;12.406;2024-02-15T07:11:40;10.70;99.90
24518;DHT22;12678;51.336;12.406;2024-02-15T07:14:06;10.80;99.90
24518;DHT22;12678;51.336;12.406;2024-02-15T07:16:33;10.80;99.90
24518;DHT22;12678;51.336;12.406;2024-02-15T07:18:59;10.90;99.90
24518;DHT22;12678;51.336;12.406;2024-02-15T07:21:25;10.90;99.90
24518;DHT22;12678;51.336;12.406;2024-02-15T07:23:55;11.00;99.90
24518;DHT22;12678;51.336;12.406;2024-02-15T07:26:25;11.00;99.90
24518;DHT22;12678;51.336;12.406;2024-02-15T07:28:53;11.10;99.90
24518;DHT22;12678;51.336;12.406;2024-02-15T07:31:19;11.10;99.90
24518;DHT22;12678;51.336;12.406;2024-02-15T07:33:47;11.20;99.90
24518;DHT22;12678;51.336;12.406;2024-02-15T07:36:12;11.20;99.90
24518;DHT22;12678;51.336;12.406;2024-02-15T07:38:38;11.20;99.90
24518;DHT22;12678;51.336;12.406;2024-02-15T07:41:04;11.20;99.90
24518;DHT22;12678;51.336;12.406;2024-02-15T07:43:29;11.20;99.90
24518;DHT22;12678;51.336;12.406;2024-02-15T07:45:54;11.30;99.90
24518;DHT22;12678;51.336;12.406;2024-02-15T07:48:20;11.30;99.90
24518;DHT22;12678;51.336;12.406;2024-02-15T07:50:45;11.30;99.90
24518;DHT22;12678;51.336;12.406;2024-02-15T07:53:11;11.40;99.90
24518;DHT22;12678;51.336;12.406;2024-02-15T07:55:37;11.40;99.90
24518;DHT22;12678;51.336;12.406;2024-02-15T07:58:03;11.40;99.90
24518;DHT22;12678;51.336;12.406;2024-02-15T08:00:30;11.40;99.90
24518;DHT22;12678;51.336;12.406;2024-02-15T08:02:55;11.50;99.90
24518;DHT22;12678;51.336;12.406;2024-02-15T08:05:22;11.50;99.90
24518;DHT22;12678;51.336;12.406;2024-02-15T08:07:48;11.50;99.90
24518;DHT22;12678;51.336;12.406;2024-02-15T08:10:16;11.50;99.90
24518;DHT22;12678;51.336;12.406;2024-02-15T08:12:45;11.60;99.90
24518;DHT22;12678;51.336;12.406;2024-02-15T08:15:12;11.60;99.90
24518;DHT22;12678;51.336;12.406;2024-02-15T08:17:39;11.60;99.90
24518;DHT22;12678;51.336;12.406;2024-02-15T08:20:12;11.60;99.90
24518;DHT22;12678;51.336;12.406;2024-02-15T08:22:39;11.60;99.90
24518;DHT22;12678;51.336;12.406;2024-02-15T08:25:16;11.60;99.90
24518;DHT22;12678;51.336;12.406;2024-02-15T08:27:46;11.60;99.90
24518;DHT22;12678;51.336;12.406;2024-02-15T08:30:16;11.70;99.90
24518;DHT22;12678;51.336;12.406;2024-02-15T08:32:43;11.70;99.90
24518;DHT22;12678;51.336;12.406;2024-02-15T08:35:10;11.70;99.90
24518;DHT22;12678;51.336;12.406;2024-02-15T08:37:36;11.80;99.90
24518;DHT22;12678;51.336;12.406;2024-02-15T08:40:07;11.80;99.90
24518;DHT22;12678;51.336;12.406;2024-02-15T08:42:40;11.90;99.90
24518;DHT22;12678;51.336;12.406;2024-02-15T08:45:06;11.90;99.90
24518;DHT22;12678;51.336;12.406;2024-02-15T08:47:35;11.90;99.90
24518;DHT22;12678;51.336;12.406;2024-02-15T08:50:03;12.00;99.90
24518;DHT22;12678;51.336;12.406;2024-02-15T08:52:29;12.00;99.90
24518;DHT22;12678;51.336;12.406;2024-02-15T08:54:54;12.00;99.90
24518;DHT22;12678;51.336;12.406;2024-02-15T08:57:21;12.00;99.90
24518;DHT22;12678;51.336;12.406;2024-02-15T08:59:47;12.10;99.90
24518;DHT22;12678;51.336;12.406;2024-02-15T09:02:12;12.00;99.90
24518;DHT22;12678;51.336;12.406;2024-02-15T09:04:39;12.10;99.90
24518;DHT22;12678;51.336;12.406;2024-02-15T09:07:06;12.10;99.90
24518;DHT22;12678;51.336;12.406;2024-02-15T09:09:33;12.20;99.90
24518;DHT22;12678;51.336;12.406;2024-02-15T09:12:01;12.10;99.90
24518;DHT22;12678;51.336;12.406;2024-02-15T09:14:30;12.10;99.90
24518;DHT22;12678;51.336;12.406;2024-02-15T09:16:55;12.20;99.90
24518;DHT22;12678;51.336;12.406;2024-02-15T09:19:21;12.20;99.90
24518;DHT22;12678;51.336;12.406;2024-02-15T09:21:48;12.20;99.90
24518;DHT22;12678;51.336;12.406;2024-02-15T09:24:13;12.30;99.90
24518;DHT22;12678;51.336;12.406;2024-02-15T09:26:41;12.40;99.90
24518;DHT22;12678;51.336;12.406;2024-02-15T09:29:08;12.50;99.90
24518;DHT22;12678;51.336;12.406;2024-02-15T09:31:33;12.50;99.90
24518;DHT22;12678;51.336;12.406;2024-02-15T09:34:01;12.70;99.90
24518;DHT22;12678;51.336;12.406;2024-02-15T09:36:26;12.80;99.90
24518;DHT22;12678;51.336;12.406;2024-02-15T09:38:53;12.90;99.90
24518;DHT22;12678;51.336;12.406;2024-02-15T09:41:19;13.00;99.90
24518;DHT22;12678;51.336;12.406;2024-02-15T09:43:45;13.10;99.90
24518;DHT22;12678;51.336;12.406;2024-02-15T09:46:10;13.10;99.90
24518;DHT22;12678;51.336;12.406;2024-02-15T09:48:39;13.30;99.90
24518;DHT22;12678;51.336;12.406;2024-02-15T09:51:07;13.30;99.90
24518;DHT22;12678;51.336;12.406;2024-02-15T09:53:33;13.30;99.90
24518;DHT22;12678;51.336;12.406;2024-02-15T09:56:00;13.30;99.90
24518;DHT22;12678;51.336;12.406;2024-02-15T09:58:30;13.20;99.90
24518;DHT22;12678;51.336;12.406;2024-02-15T10:01:00;13.20;99.90
24518;DHT22;12678;51.336;12.406;2024-02-15T10:03:29;13.30;99.90
24518;DHT22;12678;51.336;12.406;2024-02-15T10:05:56;13.40;99.90
24518;DHT22;12678;51.336;12.406;2024-02-15T10:08:23;13.40;99.90
24518;DHT22;12678;51.336;12.406;2024-02-15T10:11:05;13.40;99.90
24518;DHT22;12678;51.336;12.406;2024-02-15T10:13:33;13.40;99.90
24518;DHT22;12678;51.336;12.406;2024-02-15T10:15:59;13.50;99.90
24518;DHT22;12678;51.336;12.406;2024-02-15T10:18:24;13.50;99.90
24518;DHT22;12678;51.336;12.406;2024-02-15T10:20:59;13.50;99.90
24518;DHT22;12678;51.336;12.406;2024-02-15T10:23:25;13.50;99.90
24518;DHT22;12678;51.336;12.406;2024-02-15T10:25:51;13.50;99.90
24518;DHT22;12678;51.336;12.406;2024-02-15T10:28:21;13.50;99.90
24518;DHT22;12678;51.336;12.406;2024-02-15T10:30:52;13.60;99.90
24518;DHT22;12678;51.336;12.406;2024-02-15T10:33:20;13.70;99.90
24518;DHT22;12678;51.336;12.406;2024-02-15T10:36:08;13.80;99.90
24518;DHT22;12678;51.336;12.406;2024-02-15T10:38:34;13.80;99.90
24518;DHT22;12678;51.336;12.406;2024-02-15T10:41:03;13.80;99.90
24518;DHT22;12678;51.336;12.406;2024-02-15T10:43:35;13.80;99.90
24518;DHT22;12678;51.336;12.406;2024-02-15T10:46:03;13.80;99.90
24518;DHT22;12678;51.336;12.406;2024-02-15T10:48:28;13.80;99.90
24518;DHT22;12678;51.336;12.406;2024-02-15T10:50:56;13.80;99.90
24518;DHT22;12678;51.336;12.406;2024-02-15T10:53:26;13.90;99.90
24518;DHT22;12678;51.336;12.406;2024-02-15T10:58:47;13.80;99.90
24518;DHT22;12678;51.336;12.406;2024-02-15T11:01:18;13.90;99.90
24518;DHT22;12678;51.336;12.406;2024-02-15T11:04:07;14.00;99.90
24518;DHT22;12678;51.336;12.406;2024-02-15T11:06:35;14.10;99.90
24518;DHT22;12678;51.336;12.406;2024-02-15T11:09:04;14.10;99.90
24518;DHT22;12678;51.336;12.406;2024-02-15T11:11:33;14.10;99.90
24518;DHT22;12678;51.336;12.406;2024-02-15T11:14:30;14.10;99.90
24518;DHT22;12678;51.336;12.406;2024-02-15T11:16:58;14.20;99.90
24518;DHT22;12678;51.336;12.406;2024-02-15T11:19:41;14.20;99.90
24518;DHT22;12678;51.336;12.406;2024-02-15T11:22:13;14.20;99.90
24518;DHT22;12678;51.336;12.406;2024-02-15T11:24:51;14.20;99.90
24518;DHT22;12678;51.336;12.406;2024-02-15T11:27:27;14.20;99.90
24518;DHT22;12678;51.336;12.406;2024-02-15T11:29:54;14.30;99.90
24518;DHT22;12678;51.336;12.406;2024-02-15T11:32:43;14.30;99.90
24518;DHT22;12678;51.336;12.406;2024-02-15T11:35:10;14.30;99.90
24518;DHT22;12678;51.336;12.406;2024-02-15T11:40:17;14.40;99.90
24518;DHT22;12678;51.336;12.406;2024-02-15T11:42:44;14.50;99.90
24518;DHT22;12678;51.336;12.406;2024-02-15T11:45:11;14.60;99.90
24518;DHT22;12678;51.336;12.406;2024-02-15T11:47:38;14.70;99.90
24518;DHT22;12678;51.336;12.406;2024-02-15T11:50:14;14.70;99.90
24518;DHT22;12678;51.336;12.406;2024-02-15T11:52:44;14.80;99.90
24518;DHT22;12678;51.336;12.406;2024-02-15T11:55:11;14.80;99.90
24518;DHT22;12678;51.336;12.406;2024-02-15T11:57:41;14.80;99.90
24518;DHT22;12678;51.336;12.406;2024-02-15T12:00:24;14.80;99.90
24518;DHT22;12678;51.336;12.406;2024-02-15T12:03:09;14.90;99.90
24518;DHT22;12678;51.336;12.406;2024-02-15T12:05:54;15.00;99.90
24518;DHT22;12678;51.336;12.406;2024-02-15T12:08:38;15.00;99.90
24518;DHT22;12678;51.336;12.406;2024-02-15T12:11:22;15.10;99.90
24518;DHT22;12678;51.336;12.406;2024-02-15T12:14:06;15.00;99.90
24518;DHT22;12678;51.336;12.406;2024-02-15T12:17:05;15.00;99.90
24518;DHT22;12678;51.336;12.406;2024-02-15T12:19:50;14.90;99.90
24518;DHT22;12678;51.336;12.406;2024-02-15T12:22:32;15.00;99.90
24518;DHT22;12678;51.336;12.406;2024-02-15T12:25:04;14.90;99.90
24518;DHT22;12678;51.336;12.406;2024-02-15T12:27:40;14.90;99.90
24518;DHT22;12678;51.336;12.406;2024-02-15T12:30:06;14.90;99.90
24518;DHT22;12678;51.336;12.406;2024-02-15T12:32:34;14.90;99.90
24518;DHT22;12678;51.336;12.406;2024-02-15T12:35:11;14.90;99.90
24518;DHT22;12678;51.336;12.406;2024-02-15T12:38:05;14.80;99.90
24518;DHT22;12678;51.336;12.406;2024-02-15T12:40:39;14.80;99.90
24518;DHT22;12678;51.336;12.406;2024-02-15T12:43:09;14.80;99.90
24518;DHT22;12678;51.336;12.406;2024-02-15T12:45:36;14.80;99.90
24518;DHT22;12678;51.336;12.406;2024-02-15T12:48:07;14.90;99.90
24518;DHT22;12678;51.336;12.406;2024-02-15T12:50:33;14.90;99.90
24518;DHT22;12678;51.336;12.406;2024-02-15T12:52:59;14.90;99.90
24518;DHT22;12678;51.336;12.406;2024-02-15T12:55:54;14.90;99.90
24518;DHT22;12678;51.336;12.406;2024-02-15T12:58:20;15.00;99.90
24518;DHT22;12678;51.336;12.406;2024-02-15T13:00:45;15.00;99.90
24518;DHT22;12678;51.336;12.406;2024-02-15T13:03:12;15.00;99.90
24518;DHT22;12678;51.336;12.406;2024-02-15T13:05:40;15.00;99.90
24518;DHT22;12678;51.336;12.406;2024-02-15T13:08:06;15.10;99.90
24518;DHT22;12678;51.336;12.406;2024-02-15T13:10:36;15.10;99.90
24518;DHT22;12678;51.336;12.406;2024-02-15T13:13:01;15.10;99.90
24518;DHT22;12678;51.336;12.406;2024-02-15T13:15:27;15.10;99.90
24518;DHT22;12678;51.336;12.406;2024-02-15T13:17:58;15.20;99.90
24518;DHT22;12678;51.336;12.406;2024-02-15T13:20:24;15.10;99.90
24518;DHT22;12678;51.336;12.406;2024-02-15T13:23:07;15.10;99.90
24518;DHT22;12678;51.336;12.406;2024-02-15T13:25:48;15.10;99.90
24518;DHT22;12678;51.336;12.406;2024-02-15T13:28:14;15.00;99.90
24518;DHT22;12678;51.336;12.406;2024-02-15T13:30:40;14.90;99.90
24518;DHT22;12678;51.336;12.406;2024-02-15T13:33:06;14.90;99.90
24518;DHT22;12678;51.336;12.406;2024-02-15T13:35:32;14.90;99.90
24518;DHT22;12678;51.336;12.406;2024-02-15T13:37:58;14.90;99.90
24518;DHT22;12678;51.336;12.406;2024-02-15T13:40:27;14.90;99.90
24518;DHT22;12678;51.336;12.406;2024-02-15T13:42:57;14.90;99.90
24518;DHT22;12678;51.336;12.406;2024-02-15T13:47:55;15.00;99.90
24518;DHT22;12678;51.336;12.406;2024-02-15T13:50:22;15.10;99.90
24518;DHT22;12678;51.336;12.406;2024-02-15T13:52:49;15.10;99.90
24518;DHT22;12678;51.336;12.406;2024-02-15T13:55:18;15.20;99.90
24518;DHT22;12678;51.336;12.406;2024-02-15T13:57:45;15.30;99.90
24518;DHT22;12678;51.336;12.406;2024-02-15T14:00:15;15.40;99.90
24518;DHT22;12678;51.336;12.406;2024-02-15T14:02:55;15.40;99.90
24518;DHT22;12678;51.336;12.406;2024-02-15T14:05:25;15.50;99.90
24518;DHT22;12678;51.336;12.406;2024-02-15T14:07:55;15.50;99.90
24518;DHT22;12678;51.336;12.406;2024-02-15T14:10:22;15.50;99.90
24518;DHT22;12678;51.336;12.406;2024-02-15T14:12:48;15.50;99.90
24518;DHT22;12678;51.336;12.406;2024-02-15T14:15:15;15.50;99.90
24518;DHT22;12678;51.336;12.406;2024-02-15T14:17:42;15.50;99.90
24518;DHT22;12678;51.336;12.406;2024-02-15T14:20:10;15.60;99.90
24518;DHT22;12678;51.336;12.406;2024-02-15T14:22:48;15.50;99.90
24518;DHT22;12678;51.336;12.406;2024-02-15T14:25:15;15.50;99.90
24518;DHT22;12678;51.336;12.406;2024-02-15T14:27:40;15.60;99.90
24518;DHT22;12678;51.336;12.406;2024-02-15T14:30:07;15.60;99.90
24518;DHT22;12678;51.336;12.406;2024-02-15T14:32:51;15.50;99.90
24518;DHT22;12678;51.336;12.406;2024-02-15T14:35:35;15.60;99.90
24518;DHT22;12678;51.336;12.406;2024-02-15T14:38:02;15.60;99.90
24518;DHT22;12678;51.336;12.406;2024-02-15T14:40:32;15.60;99.90
24518;DHT22;12678;51.336;12.406;2024-02-15T14:42:58;15.60;99.90
24518;DHT22;12678;51.336;12.406;2024-02-15T14:45:25;15.50;99.90
24518;DHT22;12678;51.336;12.406;2024-02-15T14:47:50;15.50;99.90
24518;DHT22;12678;51.336;12.406;2024-02-15T14:50:16;15.50;99.90
24518;DHT22;12678;51.336;12.406;2024-02-15T14:52:42;15.40;99.90
24518;DHT22;12678;51.336;12.406;2024-02-15T14:55:08;15.40;99.90
24518;DHT22;12678;51.336;12.406;2024-02-15T14:57:34;15.40;99.90
24518;DHT22;12678;51.336;12.406;2024-02-15T15:00:01;15.30;99.90
24518;DHT22;12678;51.336;12.406;2024-02-15T15:02:29;15.30;99.90
24518;DHT22;12678;51.336;12.406;2024-02-15T15:04:55;15.30;99.90
24518;DHT22;12678;51.336;12.406;2024-02-15T15:07:39;15.20;99.90
24518;DHT22;12678;51.336;12.406;2024-02-15T15:10:23;15.20;99.90
24518;DHT22;12678;51.336;12.406;2024-02-15T15:13:07;15.10;99.90
24518;DHT22;12678;51.336;12.406;2024-02-15T15:15:35;15.10;99.90
24518;DHT22;12678;51.336;12.406;2024-02-15T15:18:02;15.10;99.90
24518;DHT22;12678;51.336;12.406;2024-02-15T15:20:30;15.00;99.90
24518;DHT22;12678;51.336;12.406;2024-02-15T15:22:58;15.00;99.90
24518;DHT22;12678;51.336;12.406;2024-02-15T15:25:24;15.00;99.90
24518;DHT22;12678;51.336;12.406;2024-02-15T15:27:49;14.90;99.90
24518;DHT22;12678;51.336;12.406;2024-02-15T15:30:16;14.90;99.90
24518;DHT22;12678;51.336;12.406;2024-02-15T15:32:44;14.90;99.90